createdAt,value
2018-05-23T00:00:41.572Z,19.40
2018-05-23T00:02:44.762Z,19.40
2018-05-23T00:04:48.691Z,19.30
2018-05-23T00:06:52.647Z,19.30
2018-05-23T00:08:55.819Z,19.30
2018-05-23T00:10:59.050Z,19.30
2018-05-23T00:13:02.217Z,19.20
2018-05-23T00:15:06.208Z,19.20
2018-05-23T00:17:09.393Z,19.10
2018-05-23T00:19:12.545Z,19.20
2018-05-23T00:21:15.723Z,19.10
2018-05-23T00:23:18.871Z,19.10
2018-05-23T00:25:22.015Z,19.10
2018-05-23T00:27:25.980Z,19.00
2018-05-23T00:29:29.134Z,19.00
2018-05-23T00:31:32.307Z,19.00
2018-05-23T00:33:35.464Z,18.90
2018-05-23T00:35:39.374Z,18.90
2018-05-23T00:37:44.440Z,18.90
2018-05-23T00:39:48.355Z,18.80
2018-05-23T00:41:51.532Z,18.80
2018-05-23T00:43:54.682Z,18.80
2018-05-23T00:45:58.603Z,18.80
2018-05-23T00:48:02.557Z,18.80
2018-05-23T00:50:05.704Z,18.80
2018-05-23T00:52:09.650Z,18.70
2018-05-23T00:54:12.810Z,18.70
2018-05-23T00:56:15.954Z,18.70
2018-05-23T00:58:19.168Z,18.70
2018-05-23T01:00:23.035Z,18.70
2018-05-23T01:02:26.451Z,18.70
2018-05-23T01:04:29.607Z,18.60
2018-05-23T01:06:33.481Z,18.60
2018-05-23T01:08:36.940Z,18.60
2018-05-23T01:10:40.079Z,18.60
2018-05-23T01:12:43.393Z,18.60
2018-05-23T01:14:48.369Z,18.50
2018-05-23T01:16:52.047Z,18.50
2018-05-23T01:18:55.993Z,18.50
2018-05-23T01:21:00.038Z,18.50
2018-05-23T01:23:03.488Z,18.50
2018-05-23T01:25:07.845Z,18.50
2018-05-23T01:27:12.205Z,18.40
2018-05-23T01:29:15.489Z,18.40
2018-05-23T01:31:18.664Z,18.40
2018-05-23T01:33:22.601Z,18.40
2018-05-23T01:35:26.428Z,18.40
2018-05-23T01:37:29.898Z,18.40
2018-05-23T01:39:33.047Z,18.30
2018-05-23T01:41:36.305Z,18.30
2018-05-23T01:43:41.358Z,18.30
2018-05-23T01:45:46.391Z,18.30
2018-05-23T01:47:51.562Z,18.20
2018-05-23T01:49:56.307Z,18.30
2018-05-23T01:52:00.335Z,18.20
2018-05-23T01:54:04.452Z,18.20
2018-05-23T01:56:08.492Z,18.20
2018-05-23T01:58:13.065Z,18.20
2018-05-23T02:00:17.161Z,18.20
2018-05-23T02:02:20.575Z,18.20
2018-05-23T02:04:24.522Z,18.10
2018-05-23T02:06:27.679Z,18.10
2018-05-23T02:08:30.864Z,18.20
2018-05-23T02:10:34.803Z,18.20
2018-05-23T02:12:38.889Z,18.10
2018-05-23T02:14:42.825Z,18.10
2018-05-23T02:16:46.757Z,18.10
2018-05-23T02:18:50.047Z,18.10
2018-05-23T02:20:53.194Z,18.10
2018-05-23T02:22:56.434Z,18.10
2018-05-23T02:25:00.350Z,18.10
2018-05-23T02:27:03.523Z,18.10
2018-05-23T02:29:06.703Z,18.10
2018-05-23T02:31:09.869Z,18.10
2018-05-23T02:33:13.114Z,18.10
2018-05-23T02:35:17.039Z,18.10
2018-05-23T02:37:20.194Z,18.10
2018-05-23T02:39:23.375Z,18.10
2018-05-23T02:41:26.534Z,18.10
2018-05-23T02:43:29.718Z,18.10
2018-05-23T02:45:32.874Z,18.10
2018-05-23T02:47:36.813Z,18.10
2018-05-23T02:49:39.994Z,18.00
2018-05-23T02:51:43.148Z,18.00
2018-05-23T02:53:46.339Z,18.00
2018-05-23T02:55:49.503Z,18.00
2018-05-23T02:57:52.662Z,18.10
2018-05-23T02:59:55.884Z,18.00
2018-05-23T03:01:59.055Z,18.10
2018-05-23T03:04:03.002Z,18.00
2018-05-23T03:06:06.183Z,18.00
2018-05-23T03:08:10.133Z,18.00
2018-05-23T03:10:13.282Z,18.00
2018-05-23T03:12:17.192Z,18.00
2018-05-23T03:14:20.380Z,18.00
2018-05-23T03:16:23.519Z,18.00
2018-05-23T03:18:26.691Z,18.00
2018-05-23T03:20:29.835Z,18.00
2018-05-23T03:22:32.982Z,18.00
2018-05-23T03:24:36.939Z,18.00
2018-05-23T03:26:40.096Z,18.00
2018-05-23T03:28:43.288Z,18.00
2018-05-23T03:30:46.545Z,18.00
2018-05-23T03:32:50.459Z,18.00
2018-05-23T03:34:53.650Z,18.00
2018-05-23T03:36:56.802Z,18.00
2018-05-23T03:38:59.982Z,18.00
2018-05-23T03:41:03.143Z,18.00
2018-05-23T03:43:06.723Z,18.00
2018-05-23T03:45:10.671Z,18.00
2018-05-23T03:47:13.829Z,18.00
2018-05-23T03:49:17.016Z,18.00
2018-05-23T03:51:20.276Z,18.00
2018-05-23T03:53:24.203Z,18.00
2018-05-23T03:55:27.405Z,18.00
2018-05-23T03:57:31.335Z,18.00
2018-05-23T03:59:34.545Z,18.00
2018-05-23T04:01:38.463Z,18.00
2018-05-23T04:03:43.213Z,18.00
2018-05-23T04:05:46.914Z,18.00
2018-05-23T04:07:50.709Z,18.00
2018-05-23T04:09:53.988Z,18.00
2018-05-23T04:11:57.149Z,18.00
2018-05-23T04:14:00.974Z,18.00
2018-05-23T04:16:04.182Z,18.00
2018-05-23T04:18:07.416Z,18.00
2018-05-23T04:20:11.371Z,18.00
2018-05-23T04:22:14.650Z,18.00
2018-05-23T04:24:19.306Z,18.00
2018-05-23T04:26:22.454Z,18.00
2018-05-23T04:28:25.612Z,18.00
2018-05-23T04:30:28.796Z,18.00
2018-05-23T04:32:32.740Z,18.00
2018-05-23T04:34:36.674Z,18.00
2018-05-23T04:36:39.875Z,18.00
2018-05-23T04:38:43.801Z,18.00
2018-05-23T04:40:47.752Z,18.00
2018-05-23T04:42:50.898Z,18.00
2018-05-23T04:44:54.072Z,18.00
2018-05-23T04:46:57.213Z,18.00
2018-05-23T04:49:00.375Z,18.00
2018-05-23T04:51:03.543Z,18.10
2018-05-23T04:53:06.684Z,18.10
2018-05-23T04:55:09.953Z,18.10
2018-05-23T04:57:13.101Z,18.10
2018-05-23T04:59:16.254Z,18.10
2018-05-23T05:01:19.427Z,18.10
2018-05-23T05:03:22.578Z,18.10
2018-05-23T05:05:25.762Z,18.20
2018-05-23T05:07:28.938Z,18.20
2018-05-23T05:09:32.142Z,18.20
2018-05-23T05:11:36.079Z,18.20
2018-05-23T05:13:39.251Z,18.20
2018-05-23T05:15:42.427Z,18.30
2018-05-23T05:17:45.603Z,18.30
2018-05-23T05:19:48.924Z,18.30
2018-05-23T05:21:52.030Z,18.30
2018-05-23T05:23:55.175Z,18.30
2018-05-23T05:25:58.344Z,18.40
2018-05-23T05:28:01.516Z,18.40
2018-05-23T05:30:04.688Z,18.40
2018-05-23T05:32:07.911Z,18.40
2018-05-23T05:34:11.070Z,18.40
2018-05-23T05:36:14.241Z,18.40
2018-05-23T05:38:17.409Z,18.50
2018-05-23T05:40:20.591Z,18.50
2018-05-23T05:42:24.560Z,18.50
2018-05-23T05:44:27.732Z,18.50
2018-05-23T05:46:30.916Z,18.60
2018-05-23T05:48:34.071Z,18.60
2018-05-23T05:50:37.244Z,18.60
2018-05-23T05:52:41.169Z,18.60
2018-05-23T05:54:45.083Z,18.60
2018-05-23T05:56:49.035Z,18.70
2018-05-23T05:58:52.193Z,18.70
2018-05-23T06:00:55.375Z,18.70
2018-05-23T06:02:58.534Z,18.70
2018-05-23T06:05:02.449Z,18.70
2018-05-23T06:07:05.632Z,18.70
2018-05-23T06:09:08.800Z,18.80
2018-05-23T06:11:11.993Z,18.80
2018-05-23T06:13:15.907Z,18.80
2018-05-23T06:15:19.818Z,18.90
2018-05-23T06:17:23.204Z,18.80
2018-05-23T06:19:26.350Z,18.90
2018-05-23T06:21:29.549Z,18.90
2018-05-23T06:23:32.716Z,18.90
2018-05-23T06:25:35.867Z,18.90
2018-05-23T06:27:39.049Z,19.00
2018-05-23T06:29:42.206Z,19.00
2018-05-23T06:31:46.159Z,19.10
2018-05-23T06:33:49.308Z,19.00
2018-05-23T06:35:52.500Z,19.10
2018-05-23T06:37:55.670Z,19.10
2018-05-23T06:39:58.813Z,19.10
2018-05-23T06:42:01.985Z,19.20
2018-05-23T06:44:05.898Z,19.30
2018-05-23T06:46:09.841Z,19.30
2018-05-23T06:48:12.994Z,19.30
2018-05-23T06:50:16.155Z,19.30
2018-05-23T06:52:19.350Z,19.40
2018-05-23T06:54:23.287Z,19.40
2018-05-23T06:56:26.466Z,19.40
2018-05-23T06:58:30.384Z,19.50
2018-05-23T07:00:35.044Z,19.50
2018-05-23T07:02:38.979Z,19.50
2018-05-23T07:04:42.903Z,19.60
2018-05-23T07:06:46.838Z,19.60
2018-05-23T07:08:50.790Z,19.60
2018-05-23T07:10:53.975Z,19.60
2018-05-23T07:12:57.167Z,19.60
2018-05-23T07:15:01.114Z,19.70
2018-05-23T07:17:04.289Z,19.70
2018-05-23T07:19:08.259Z,19.80
2018-05-23T07:21:11.452Z,19.80
2018-05-23T07:23:14.647Z,19.90
2018-05-23T07:25:18.584Z,20.00
2018-05-23T07:27:22.090Z,19.90
2018-05-23T07:29:26.049Z,20.10
2018-05-23T07:31:29.324Z,20.10
2018-05-23T07:33:33.280Z,20.20
2018-05-23T07:35:36.448Z,20.20
2018-05-23T07:37:40.391Z,20.30
2018-05-23T07:39:43.540Z,20.30
2018-05-23T07:41:46.711Z,20.40
2018-05-23T07:43:49.859Z,20.40
2018-05-23T07:45:53.080Z,20.50
2018-05-23T07:47:56.284Z,20.60
2018-05-23T07:49:59.454Z,20.60
2018-05-23T07:52:02.638Z,20.70
2018-05-23T07:54:06.640Z,20.90
2018-05-23T07:56:11.320Z,20.90
2018-05-23T07:58:14.625Z,20.90
2018-05-23T08:00:18.554Z,21.20
2018-05-23T08:02:21.749Z,21.10
2018-05-23T08:04:25.669Z,21.30
2018-05-23T08:06:28.827Z,21.30
2018-05-23T08:08:32.025Z,21.40
2018-05-23T08:10:35.211Z,21.50
2018-05-23T08:12:39.187Z,21.70
2018-05-23T08:14:42.353Z,21.70
2018-05-23T08:16:45.536Z,21.80
2018-05-23T08:18:49.480Z,21.90
2018-05-23T08:20:53.467Z,22.00
2018-05-23T08:22:56.661Z,22.00
2018-05-23T08:24:59.802Z,22.10
2018-05-23T08:27:02.953Z,22.20
2018-05-23T08:29:06.137Z,22.30
2018-05-23T08:31:10.055Z,22.40
2018-05-23T08:33:14.007Z,22.50
2018-05-23T08:35:17.170Z,22.40
2018-05-23T08:37:20.353Z,22.50
2018-05-23T08:39:23.520Z,22.60
2018-05-23T08:41:27.484Z,22.70
2018-05-23T08:43:30.658Z,22.70
2018-05-23T08:45:33.802Z,22.80
2018-05-23T08:47:36.986Z,22.80
2018-05-23T08:49:40.131Z,22.90
2018-05-23T08:51:43.292Z,22.90
2018-05-23T08:53:46.486Z,23.00
2018-05-23T08:55:50.408Z,23.10
2018-05-23T08:57:54.453Z,23.10
2018-05-23T08:59:57.544Z,23.10
2018-05-23T09:02:01.457Z,23.20
2018-05-23T09:04:04.646Z,23.20
2018-05-23T09:06:07.850Z,23.20
2018-05-23T09:08:11.027Z,23.30
2018-05-23T09:10:14.170Z,23.30
2018-05-23T09:12:17.495Z,23.40
2018-05-23T09:14:20.608Z,23.40
2018-05-23T09:16:23.793Z,23.40
2018-05-23T09:18:26.981Z,23.40
2018-05-23T09:20:30.165Z,23.40
2018-05-23T09:22:33.317Z,23.40
2018-05-23T09:24:37.258Z,23.40
2018-05-23T09:26:40.402Z,23.40
2018-05-23T09:28:43.575Z,23.40
2018-05-23T09:30:46.809Z,23.40
2018-05-23T09:32:50.812Z,23.40
2018-05-23T09:34:53.992Z,23.40
2018-05-23T09:36:57.198Z,23.30
2018-05-23T09:39:00.385Z,23.30
2018-05-23T09:41:03.683Z,23.30
2018-05-23T09:43:06.984Z,23.30
2018-05-23T09:45:11.015Z,23.20
2018-05-23T09:47:14.192Z,23.30
2018-05-23T09:49:18.147Z,23.30
2018-05-23T09:51:22.083Z,23.30
2018-05-23T09:53:25.279Z,23.30
2018-05-23T09:55:29.209Z,23.30
2018-05-23T09:57:33.158Z,23.30
2018-05-23T09:59:36.443Z,23.30
2018-05-23T10:01:40.439Z,23.30
2018-05-23T10:03:43.622Z,23.20
2018-05-23T10:05:46.768Z,23.20
2018-05-23T10:07:49.920Z,23.20
2018-05-23T10:09:53.107Z,23.10
2018-05-23T10:11:57.027Z,23.00
2018-05-23T10:14:00.976Z,23.00
2018-05-23T10:16:04.143Z,23.00
2018-05-23T10:18:07.292Z,22.90
2018-05-23T10:20:10.501Z,22.90
2018-05-23T10:22:13.658Z,22.80
2018-05-23T10:24:16.847Z,22.70
2018-05-23T10:26:20.130Z,22.70
2018-05-23T10:28:23.295Z,22.60
2018-05-23T10:30:27.257Z,22.40
2018-05-23T10:32:30.683Z,22.40
2018-05-23T10:34:33.972Z,22.30
2018-05-23T10:36:37.896Z,22.20
2018-05-23T10:38:41.857Z,22.20
2018-05-23T10:40:45.031Z,22.10
2018-05-23T10:42:48.199Z,22.10
2018-05-23T10:44:51.388Z,22.10
2018-05-23T10:46:54.551Z,22.10
2018-05-23T10:48:58.510Z,22.00
2018-05-23T10:51:01.665Z,22.00
2018-05-23T10:53:04.828Z,22.00
2018-05-23T10:55:08.042Z,21.90
2018-05-23T10:57:11.216Z,21.90
2018-05-23T10:59:15.183Z,21.80
2018-05-23T11:01:18.364Z,21.80
2018-05-23T11:03:21.519Z,21.80
2018-05-23T11:05:24.692Z,21.70
2018-05-23T11:07:27.858Z,21.80
2018-05-23T11:09:31.900Z,21.70
2018-05-23T11:11:35.828Z,21.70
2018-05-23T11:13:38.990Z,21.70
2018-05-23T11:15:42.191Z,21.70
2018-05-23T11:17:45.336Z,21.70
2018-05-23T11:19:48.507Z,21.70
2018-05-23T11:21:51.664Z,21.80
2018-05-23T11:23:55.579Z,21.80
2018-05-23T11:25:59.624Z,21.80
2018-05-23T11:28:03.570Z,21.80
2018-05-23T11:30:06.855Z,21.80
2018-05-23T11:32:10.833Z,21.90
2018-05-23T11:34:14.032Z,21.90
2018-05-23T11:36:17.186Z,21.90
2018-05-23T11:38:20.354Z,21.90
2018-05-23T11:40:23.539Z,22.00
2018-05-23T11:42:26.703Z,22.00
2018-05-23T11:44:29.898Z,22.10
2018-05-23T11:46:33.110Z,22.10
2018-05-23T11:48:36.275Z,22.20
2018-05-23T11:50:39.463Z,22.20
2018-05-23T11:52:43.422Z,22.30
2018-05-23T11:54:46.709Z,22.30
2018-05-23T11:56:49.778Z,22.40
2018-05-23T11:58:53.721Z,22.50
2018-05-23T12:00:57.673Z,22.50
2018-05-23T12:03:00.823Z,22.50
2018-05-23T12:05:03.999Z,22.60
2018-05-23T12:07:07.179Z,22.60
2018-05-23T12:09:11.100Z,22.80
2018-05-23T12:11:15.042Z,22.80
2018-05-23T12:13:18.200Z,22.80
2018-05-23T12:15:21.400Z,22.90
2018-05-23T12:17:24.655Z,22.90
2018-05-23T12:19:28.602Z,23.10
2018-05-23T12:21:31.781Z,23.10
2018-05-23T12:23:35.691Z,23.20
2018-05-23T12:25:38.910Z,23.20
2018-05-23T12:27:42.835Z,23.30
2018-05-23T12:29:46.031Z,23.30
2018-05-23T12:31:49.214Z,23.40
2018-05-23T12:33:52.402Z,23.40
2018-05-23T12:35:55.594Z,23.50
2018-05-23T12:37:58.762Z,23.50
2018-05-23T12:40:01.946Z,23.60
2018-05-23T12:42:05.111Z,23.60
2018-05-23T12:44:08.360Z,23.70
2018-05-23T12:46:11.529Z,23.70
2018-05-23T12:48:14.711Z,23.80
2018-05-23T12:50:18.679Z,24.00
2018-05-23T12:52:21.825Z,24.00
2018-05-23T12:54:24.976Z,24.10
2018-05-23T12:56:28.930Z,24.20
2018-05-23T12:58:32.085Z,24.20
2018-05-23T13:00:35.247Z,24.30
2018-05-23T13:02:38.419Z,24.40
2018-05-23T13:04:42.352Z,24.50
2018-05-23T13:06:46.346Z,24.50
2018-05-23T13:08:49.504Z,24.50
2018-05-23T13:10:52.697Z,24.60
2018-05-23T13:12:56.664Z,24.70
2018-05-23T13:14:59.807Z,24.70
2018-05-23T13:17:02.995Z,24.80
2018-05-23T13:19:06.153Z,24.90
2018-05-23T13:21:09.333Z,24.90
2018-05-23T13:23:12.611Z,25.00
2018-05-23T13:25:16.518Z,25.10
2018-05-23T13:27:19.668Z,25.10
2018-05-23T13:29:22.871Z,25.20
2018-05-23T13:31:26.956Z,25.20
2018-05-23T13:33:30.110Z,25.30
2018-05-23T13:35:33.295Z,25.30
2018-05-23T13:37:36.507Z,25.30
2018-05-23T13:39:39.687Z,25.30
2018-05-23T13:41:42.890Z,25.30
2018-05-23T13:43:46.052Z,25.30
2018-05-23T13:45:49.252Z,25.30
2018-05-23T13:47:52.417Z,25.30
2018-05-23T13:49:55.570Z,25.30
2018-05-23T13:51:58.746Z,25.30
2018-05-23T13:54:01.911Z,25.30
2018-05-23T13:56:05.100Z,25.30
2018-05-23T13:58:08.316Z,25.30
2018-05-23T14:00:12.251Z,25.40
2018-05-23T14:02:15.418Z,25.30
2018-05-23T14:04:18.588Z,25.40
2018-05-23T14:06:22.540Z,25.50
2018-05-23T14:08:25.688Z,25.40
2018-05-23T14:10:28.849Z,25.50
2018-05-23T14:12:32.024Z,25.50
2018-05-23T14:14:35.162Z,25.60
2018-05-23T14:16:38.352Z,25.60
2018-05-23T14:18:42.297Z,25.70
2018-05-23T14:20:45.450Z,25.70
2018-05-23T14:22:48.626Z,25.70
2018-05-23T14:24:51.771Z,25.80
2018-05-23T14:26:54.970Z,25.80
2018-05-23T14:28:58.334Z,25.90
2018-05-23T14:31:01.505Z,25.90
2018-05-23T14:33:04.688Z,26.00
2018-05-23T14:35:08.463Z,26.10
2018-05-23T14:37:12.382Z,26.20
2018-05-23T14:39:16.360Z,26.20
2018-05-23T14:41:19.628Z,26.20
2018-05-23T14:43:23.577Z,26.30
2018-05-23T14:45:26.773Z,26.30
2018-05-23T14:47:29.942Z,26.40
2018-05-23T14:49:33.590Z,26.40
2018-05-23T14:51:36.817Z,26.40
2018-05-23T14:53:40.070Z,26.50
2018-05-23T14:55:43.173Z,26.50
2018-05-23T14:57:46.348Z,26.50
2018-05-23T14:59:49.513Z,26.60
2018-05-23T15:01:52.811Z,26.70
2018-05-23T15:03:55.978Z,26.70
2018-05-23T15:05:59.130Z,26.70
2018-05-23T15:08:02.365Z,26.80
2018-05-23T15:10:06.296Z,26.80
2018-05-23T15:12:10.252Z,26.90
2018-05-23T15:14:13.395Z,26.90
2018-05-23T15:16:16.557Z,26.90
2018-05-23T15:18:19.767Z,27.00
2018-05-23T15:20:22.920Z,27.10
2018-05-23T15:22:26.109Z,27.00
2018-05-23T15:24:29.267Z,27.10
2018-05-23T15:26:33.224Z,27.10
2018-05-23T15:28:36.425Z,27.10
2018-05-23T15:30:39.578Z,27.20
2018-05-23T15:32:42.808Z,27.20
2018-05-23T15:34:46.742Z,27.20
2018-05-23T15:36:50.655Z,27.30
2018-05-23T15:38:54.698Z,27.30
2018-05-23T15:40:58.612Z,27.30
2018-05-23T15:43:02.558Z,27.40
2018-05-23T15:45:06.564Z,27.40
2018-05-23T15:47:10.503Z,27.40
2018-05-23T15:49:14.459Z,27.40
2018-05-23T15:51:17.744Z,27.40
2018-05-23T15:53:20.860Z,27.50
2018-05-23T15:55:24.006Z,27.50
2018-05-23T15:57:27.190Z,27.50
2018-05-23T15:59:30.348Z,27.50
2018-05-23T16:01:33.495Z,27.50
2018-05-23T16:03:36.687Z,27.50
2018-05-23T16:05:40.613Z,27.60
2018-05-23T16:07:44.555Z,27.60
2018-05-23T16:09:47.697Z,27.50
2018-05-23T16:11:50.866Z,27.60
2018-05-23T16:13:54.044Z,27.50
2018-05-23T16:15:57.194Z,27.60
2018-05-23T16:18:00.427Z,27.60
2018-05-23T16:20:03.630Z,27.60
2018-05-23T16:22:06.785Z,27.60
2018-05-23T16:24:10.733Z,27.50
2018-05-23T16:26:13.886Z,27.50
2018-05-23T16:28:17.071Z,27.40
2018-05-23T16:30:20.280Z,27.40
2018-05-23T16:32:23.427Z,27.40
2018-05-23T16:34:26.611Z,27.40
2018-05-23T16:36:29.872Z,27.30
2018-05-23T16:38:33.847Z,27.30
2018-05-23T16:40:37.078Z,27.20
2018-05-23T16:42:40.226Z,27.20
2018-05-23T16:44:43.399Z,27.20
2018-05-23T16:46:46.555Z,27.10
2018-05-23T16:48:49.727Z,27.10
2018-05-23T16:50:53.660Z,27.00
2018-05-23T16:52:57.581Z,27.00
2018-05-23T16:55:01.590Z,26.90
2018-05-23T16:57:04.760Z,26.90
2018-05-23T16:59:07.956Z,26.90
2018-05-23T17:01:11.108Z,26.90
2018-05-23T17:03:14.265Z,26.80
2018-05-23T17:05:17.455Z,26.80
2018-05-23T17:07:21.378Z,26.70
2018-05-23T17:09:24.565Z,26.70
2018-05-23T17:11:27.723Z,26.70
2018-05-23T17:13:30.900Z,26.60
2018-05-23T17:15:34.828Z,26.60
2018-05-23T17:17:38.743Z,26.50
2018-05-23T17:19:41.920Z,26.50
2018-05-23T17:21:45.155Z,26.50
2018-05-23T17:23:48.331Z,26.40
2018-05-23T17:25:51.479Z,26.40
2018-05-23T17:27:54.631Z,26.40
2018-05-23T17:29:57.918Z,26.30
2018-05-23T17:32:01.070Z,26.30
2018-05-23T17:34:04.249Z,26.30
2018-05-23T17:36:07.399Z,26.20
2018-05-23T17:38:10.648Z,26.20
2018-05-23T17:40:14.600Z,26.10
2018-05-23T17:42:17.760Z,26.10
2018-05-23T17:44:20.930Z,26.10
2018-05-23T17:46:24.074Z,26.10
2018-05-23T17:48:27.240Z,26.00
2018-05-23T17:50:30.448Z,25.90
2018-05-23T17:52:33.621Z,25.90
2018-05-23T17:54:37.557Z,25.80
2018-05-23T17:56:40.722Z,25.90
2018-05-23T17:58:43.896Z,25.80
2018-05-23T18:00:47.175Z,25.80
2018-05-23T18:02:51.090Z,25.80
2018-05-23T18:04:55.046Z,25.70
2018-05-23T18:06:58.200Z,25.70
2018-05-23T18:09:01.355Z,25.70
2018-05-23T18:11:04.548Z,25.70
2018-05-23T18:13:08.556Z,25.60
2018-05-23T18:15:11.738Z,25.60
2018-05-23T18:17:14.918Z,25.60
2018-05-23T18:19:18.091Z,25.60
2018-05-23T18:21:22.031Z,25.50
2018-05-23T18:23:26.011Z,25.50
2018-05-23T18:25:29.169Z,25.50
2018-05-23T18:27:32.323Z,25.50
2018-05-23T18:29:35.556Z,25.50
2018-05-23T18:31:38.679Z,25.50
2018-05-23T18:33:42.628Z,25.40
2018-05-23T18:35:45.813Z,25.40
2018-05-23T18:37:49.742Z,25.40
2018-05-23T18:39:53.683Z,25.30
2018-05-23T18:41:57.677Z,25.30
2018-05-23T18:44:00.835Z,25.30
2018-05-23T18:46:04.053Z,25.30
2018-05-23T18:48:07.199Z,25.30
2018-05-23T18:50:10.376Z,25.20
2018-05-23T18:52:13.539Z,25.20
2018-05-23T18:54:17.463Z,25.10
2018-05-23T18:56:21.401Z,25.10
2018-05-23T18:58:25.322Z,25.00
2018-05-23T19:00:29.263Z,25.00
2018-05-23T19:02:32.446Z,25.00
2018-05-23T19:04:36.484Z,24.90
2018-05-23T19:06:40.438Z,24.80
2018-05-23T19:08:43.719Z,24.80
2018-05-23T19:10:47.662Z,24.70
2018-05-23T19:12:50.822Z,24.70
2018-05-23T19:14:54.009Z,24.70
2018-05-23T19:16:57.171Z,24.70
2018-05-23T19:19:01.120Z,24.60
2018-05-23T19:21:04.332Z,24.50
2018-05-23T19:23:07.623Z,24.50
2018-05-23T19:25:10.799Z,24.50
2018-05-23T19:27:13.972Z,24.40
2018-05-23T19:29:17.114Z,24.40
2018-05-23T19:31:20.319Z,24.40
2018-05-23T19:33:23.484Z,24.30
2018-05-23T19:35:26.767Z,24.30
2018-05-23T19:37:30.719Z,24.10
2018-05-23T19:39:33.878Z,24.10
2018-05-23T19:41:37.057Z,24.10
2018-05-23T19:43:40.231Z,24.00
2018-05-23T19:45:43.409Z,24.00
2018-05-23T19:47:46.593Z,23.90
2018-05-23T19:49:49.844Z,23.90
2018-05-23T19:51:53.803Z,23.70
2018-05-23T19:53:56.962Z,23.70
2018-05-23T19:56:00.195Z,23.70
2018-05-23T19:58:03.347Z,23.60
2018-05-23T20:00:07.209Z,23.60
2018-05-23T20:02:11.238Z,23.30
2018-05-23T20:04:14.374Z,23.30
2018-05-23T20:06:17.565Z,23.30
2018-05-23T20:08:21.543Z,23.20
2018-05-23T20:10:24.646Z,23.20
2018-05-23T20:12:27.838Z,23.20
2018-05-23T20:14:31.021Z,23.10
2018-05-23T20:16:34.957Z,23.00
2018-05-23T20:18:38.102Z,23.00
2018-05-23T20:20:41.355Z,23.00
2018-05-23T20:22:44.468Z,22.90
2018-05-23T20:24:48.515Z,22.80
2018-05-23T20:26:51.693Z,22.80
2018-05-23T20:28:55.640Z,22.70
2018-05-23T20:30:58.791Z,22.70
2018-05-23T20:33:02.770Z,22.60
2018-05-23T20:35:06.688Z,22.50
2018-05-23T20:37:10.630Z,22.50
2018-05-23T20:39:13.788Z,22.40
2018-05-23T20:41:16.971Z,22.40
2018-05-23T20:43:20.181Z,22.30
2018-05-23T20:45:23.335Z,22.30
2018-05-23T20:47:27.276Z,22.20
2018-05-23T20:49:31.276Z,22.20
2018-05-23T20:51:35.207Z,22.10
2018-05-23T20:53:39.151Z,22.10
2018-05-23T20:55:43.066Z,22.00
2018-05-23T20:57:47.011Z,22.00
2018-05-23T20:59:51.046Z,21.90
2018-05-23T21:01:54.341Z,21.90
2018-05-23T21:03:58.255Z,21.80
2018-05-23T21:06:02.187Z,21.80
2018-05-23T21:08:06.139Z,21.70
2018-05-23T21:10:09.282Z,21.70
2018-05-23T21:12:12.461Z,21.70
2018-05-23T21:14:15.632Z,21.60
2018-05-23T21:16:19.562Z,21.50
2018-05-23T21:18:22.875Z,21.50
2018-05-23T21:20:26.794Z,21.50
2018-05-23T21:22:30.755Z,21.40
2018-05-23T21:24:34.652Z,21.40
2018-05-23T21:26:38.571Z,21.30
2018-05-23T21:28:42.524Z,21.30
2018-05-23T21:30:45.680Z,21.30
2018-05-23T21:32:48.865Z,21.20
2018-05-23T21:34:52.027Z,21.20
2018-05-23T21:36:55.980Z,21.10
2018-05-23T21:38:59.270Z,21.10
2018-05-23T21:41:03.299Z,21.00
2018-05-23T21:43:07.243Z,21.00
2018-05-23T21:45:10.406Z,21.00
2018-05-23T21:47:13.612Z,21.00
2018-05-23T21:49:16.827Z,21.00
2018-05-23T21:51:20.791Z,20.90
2018-05-23T21:53:23.967Z,20.80
2018-05-23T21:55:27.904Z,20.80
2018-05-23T21:57:32.087Z,20.80
2018-05-23T21:59:35.329Z,20.80
2018-05-23T22:01:39.252Z,20.70
2018-05-23T22:03:43.203Z,20.70
2018-05-23T22:05:47.207Z,20.60
2018-05-23T22:07:51.157Z,20.60
2018-05-23T22:09:55.182Z,20.60
2018-05-23T22:11:58.279Z,20.60
2018-05-23T22:14:02.232Z,20.50
2018-05-23T22:16:06.246Z,20.50
2018-05-23T22:18:10.229Z,20.40
2018-05-23T22:20:13.395Z,20.40
2018-05-23T22:22:16.541Z,20.40
2018-05-23T22:24:19.723Z,20.40
2018-05-23T22:26:22.985Z,20.30
2018-05-23T22:28:26.946Z,20.30
2018-05-23T22:30:30.118Z,20.30
2018-05-23T22:32:33.272Z,20.30
2018-05-23T22:34:36.588Z,20.20
2018-05-23T22:36:39.846Z,20.20
2018-05-23T22:38:43.025Z,20.20
2018-05-23T22:40:46.285Z,20.10
2018-05-23T22:42:50.197Z,20.10
2018-05-23T22:44:54.134Z,20.00
2018-05-23T22:46:58.111Z,20.00
2018-05-23T22:49:01.295Z,20.00
2018-05-23T22:51:04.458Z,20.00
2018-05-23T22:53:07.650Z,19.90
2018-05-23T22:55:10.808Z,19.90
2018-05-23T22:57:13.957Z,19.90
2018-05-23T22:59:17.139Z,19.80
2018-05-23T23:01:20.426Z,19.80
2018-05-23T23:03:24.374Z,19.80
2018-05-23T23:05:27.515Z,19.70
2018-05-23T23:07:30.665Z,19.70
2018-05-23T23:09:34.616Z,19.70
2018-05-23T23:11:37.762Z,19.60
2018-05-23T23:13:40.935Z,19.60
2018-05-23T23:15:44.095Z,19.60
2018-05-23T23:17:47.246Z,19.60
2018-05-23T23:19:51.191Z,19.50
2018-05-23T23:21:54.332Z,19.50
2018-05-23T23:23:57.501Z,19.50
2018-05-23T23:26:00.742Z,19.50
2018-05-23T23:28:03.916Z,19.40
2018-05-23T23:30:07.099Z,19.40
2018-05-23T23:32:10.248Z,19.40
2018-05-23T23:34:13.437Z,19.30
2018-05-23T23:36:16.589Z,19.30
2018-05-23T23:38:19.732Z,19.30
2018-05-23T23:40:22.915Z,19.30
2018-05-23T23:42:26.060Z,19.30
2018-05-23T23:44:29.230Z,19.30
2018-05-23T23:46:32.377Z,19.20
2018-05-23T23:48:35.523Z,19.20
2018-05-23T23:50:38.707Z,19.20
2018-05-23T23:52:41.854Z,19.10
2018-05-23T23:54:45.098Z,19.10
2018-05-23T23:56:48.207Z,19.10
2018-05-23T23:58:51.350Z,19.00
